Time;durP1;ratioP1;P1;durP2;ratioP2;P2;SDS_P1;SDS_P2;PMS_P1;PMS_P2;Temp;Humidity;BMP_temperature;BMP_pressure;BME280_temperature;BME280_humidity;BME280_pressure;Samples;Min_cycle;Max_cycle;Signal;HPM_P1;HPM_P2
2023/07/22 00:01:44;;;;;;;8.07;5.73;;;17.80;79.50;;;20.55;52.83;101100.63;4994131;28;20208;-60
2023/07/22 00:04:11;;;;;;;6.93;5.30;;;17.80;79.70;;;20.53;52.98;101103.53;4994352;28;20196;-62
2023/07/22 00:06:38;;;;;;;7.00;5.47;;;17.80;79.70;;;20.51;52.99;101102.13;4994279;28;20735;-59
2023/07/22 00:09:05;;;;;;;6.17;5.43;;;17.70;79.50;;;20.50;53.03;101089.78;4993777;28;20216;-62
2023/07/22 00:11:32;;;;;;;5.97;5.37;;;17.70;79.60;;;20.47;53.12;101103.63;4994096;28;20669;-62
2023/07/22 00:13:59;;;;;;;5.80;5.20;;;17.70;79.70;;;20.44;52.97;101098.75;5009939;28;20706;-61
2023/07/22 00:16:29;;;;;;;7.13;5.60;;;17.70;79.80;;;20.39;53.01;101101.28;5013631;28;20187;-60
2023/07/22 00:18:56;;;;;;;5.57;4.77;;;17.60;79.60;;;20.37;53.10;101095.38;5005753;28;20564;-60
2023/07/22 00:21:23;;;;;;;6.50;5.47;;;17.60;79.60;;;20.39;53.31;101096.78;4993796;28;20220;-62
2023/07/22 00:23:50;;;;;;;8.63;6.17;;;17.60;80.00;;;20.39;53.23;101102.13;4993876;28;20188;-62
2023/07/22 00:26:17;;;;;;;6.07;5.47;;;17.60;80.00;;;20.38;53.39;101095.13;4995039;28;20206;-60
2023/07/22 00:28:44;;;;;;;9.43;5.80;;;17.70;79.90;;;20.38;53.03;101091.63;4997402;28;20283;-59
2023/07/22 00:31:11;;;;;;;6.57;4.63;;;17.60;80.00;;;20.36;53.06;101091.88;4997893;28;20199;-62
2023/07/22 00:33:40;;;;;;;6.30;5.67;;;17.60;80.00;;;20.36;52.93;101093.72;4997912;28;20624;-62
2023/07/22 00:36:07;;;;;;;7.93;6.47;;;17.60;80.10;;;20.31;53.75;101096.28;4998269;28;20797;-61
2023/07/22 00:38:35;;;;;;;6.33;5.73;;;17.60;80.10;;;20.25;53.68;101096.13;4996520;28;20204;-60
2023/07/22 00:41:04;;;;;;;8.63;5.40;;;17.60;80.50;;;20.24;53.31;101093.72;4997686;28;20219;-59
2023/07/22 00:43:31;;;;;;;7.57;5.73;;;17.50;80.10;;;20.24;53.94;101094.53;4998020;28;20188;-60
2023/07/22 00:45:59;;;;;;;8.87;5.60;;;17.50;80.30;;;20.24;53.45;101091.84;4997772;28;20253;-61
2023/07/22 00:48:27;;;;;;;7.10;5.10;;;17.50;80.20;;;20.25;53.41;101095.34;4997366;28;20621;-62
2023/07/22 00:50:56;;;;;;;8.40;6.17;;;17.50;80.40;;;20.24;53.34;101094.53;4996114;28;20208;-61
2023/07/22 00:53:23;;;;;;;5.97;4.97;;;17.50;80.10;;;20.24;53.86;101096.38;5009991;28;20191;-60
2023/07/22 00:55:50;;;;;;;7.53;4.90;;;17.50;80.20;;;20.25;53.96;101095.34;5017244;28;20700;-61
2023/07/22 00:58:17;;;;;;;10.07;6.17;;;17.50;80.50;;;20.26;53.77;101086.25;5005335;28;20661;-59
2023/07/22 01:00:44;;;;;;;6.10;5.13;;;17.50;80.20;;;20.25;53.33;101095.34;4997364;28;20220;-60
2023/07/22 01:03:12;;;;;;;6.53;5.50;;;17.50;80.10;;;20.24;53.67;101091.03;4997407;28;20187;-61
2023/07/22 01:05:41;;;;;;;8.07;5.73;;;17.50;79.90;;;20.21;53.41;101089.59;4997510;28;20239;-60
2023/07/22 01:08:10;;;;;;;6.07;5.37;;;17.50;79.90;;;20.21;53.12;101088.78;4997686;28;20192;-60
2023/07/22 01:10:37;;;;;;;6.97;5.03;;;17.40;79.70;;;20.19;53.66;101085.53;4998968;28;20306;-60
2023/07/22 01:13:04;;;;;;;6.77;5.73;;;17.40;80.00;;;20.17;53.41;101085.75;4997671;28;20210;-61
2023/07/22 01:15:32;;;;;;;6.07;4.57;;;17.40;79.70;;;20.16;53.15;101084.13;4997567;28;20239;-61
2023/07/22 01:18:03;;;;;;;9.60;4.63;;;17.40;80.00;;;20.16;53.06;101076.09;4996393;28;20768;-62
2023/07/22 01:20:31;;;;;;;7.47;5.30;;;17.40;79.90;;;20.18;53.38;101078.56;4977521;28;20224;-61
2023/07/22 01:23:01;;;;;;;10.17;5.17;;;17.40;80.00;;;20.15;52.85;101074.50;4977409;28;20220;-62
2023/07/22 01:25:28;;;;;;;7.70;5.20;;;17.40;79.70;;;20.10;53.27;101076.22;4977901;28;20196;-59
2023/07/22 01:27:56;;;;;;;7.03;5.80;;;17.40;79.70;;;20.06;53.31;101070.50;4977956;28;20195;-61
2023/07/22 01:30:23;;;;;;;10.80;5.30;;;17.30;79.50;;;20.04;52.96;101069.91;4977589;28;20243;-62
2023/07/22 01:32:51;;;;;;;5.67;5.07;;;17.30;79.80;;;20.03;53.46;101070.16;4977180;28;20185;-60
2023/07/22 01:35:19;;;;;;;7.00;5.80;;;17.30;80.00;;;20.03;53.43;101065.63;4977217;28;20665;-61
2023/07/22 01:37:46;;;;;;;5.60;5.10;;;17.30;79.80;;;19.99;52.96;101072.44;4976128;28;20293;-60
2023/07/22 01:40:14;;;;;;;6.73;5.77;;;17.20;79.80;;;19.97;53.44;101071.84;4977391;28;20618;-61
2023/07/22 01:42:42;;;;;;;7.70;5.33;;;17.20;79.80;;;19.95;53.07;101067.78;4976111;28;20221;-62
2023/07/22 01:45:10;;;;;;;7.07;5.00;;;17.20;79.80;;;19.92;53.36;101074.41;4977495;28;20243;-62
2023/07/22 01:47:42;;;;;;;5.90;5.13;;;17.10;80.50;;;19.88;53.11;101069.75;4977387;28;20600;-61
2023/07/22 01:50:10;;;;;;;7.20;4.73;;;17.10;79.70;;;19.83;53.16;101067.75;4976391;28;20306;-62
2023/07/22 01:52:37;;;;;;;7.00;4.87;;;17.10;79.80;;;19.77;53.45;101067.84;4989253;28;20199;-62
2023/07/22 01:55:06;;;;;;;9.10;5.73;;;17.00;79.60;;;19.72;53.31;101065.84;5016139;28;20197;-61
2023/07/22 01:57:34;;;;;;;8.03;5.40;;;17.00;79.70;;;19.68;53.31;101067.34;5009181;28;20192;-61
2023/07/22 02:00:05;;;;;;;7.70;5.30;;;17.00;79.90;;;19.65;53.59;101067.81;4994899;28;20227;-60
2023/07/22 02:02:32;;;;;;;6.57;5.13;;;16.90;80.10;;;19.61;53.75;101071.97;4996415;28;20604;-61
2023/07/22 02:04:59;;;;;;;7.70;5.53;;;16.90;80.10;;;19.57;53.62;101076.13;5000080;28;20660;-60
2023/07/22 02:07:28;;;;;;;8.63;5.53;;;16.80;80.40;;;19.54;53.59;101073.88;5015888;28;20240;-61
2023/07/22 02:09:56;;;;;;;6.63;5.27;;;16.80;80.20;;;19.50;53.70;101076.22;5004559;28;20215;-60
2023/07/22 02:12:23;;;;;;;6.53;5.03;;;16.80;80.20;;;19.48;53.85;101072.13;4996365;28;20601;-60
2023/07/22 02:14:51;;;;;;;7.07;5.47;;;16.70;80.30;;;19.45;53.56;101078.72;4996106;28;20192;-62
2023/07/22 02:17:18;;;;;;;5.73;4.80;;;16.70;80.30;;;19.41;54.15;101071.41;4994882;28;20278;-61
2023/07/22 02:19:45;;;;;;;7.13;5.70;;;16.70;80.40;;;19.38;53.81;101071.84;4982162;28;20225;-59
2023/07/22 02:22:12;;;;;;;7.20;5.03;;;16.70;80.40;;;19.38;53.88;101067.31;4976702;28;20307;-59
2023/07/22 02:24:39;;;;;;;12.67;6.00;;;16.60;80.60;;;19.38;54.08;101072.66;4976415;28;20276;-61
2023/07/22 02:27:08;;;;;;;7.53;5.53;;;16.60;80.90;;;19.36;54.26;101065.91;4976694;28;20673;-61
2023/07/22 02:29:36;;;;;;;6.80;5.10;;;16.60;80.90;;;19.33;54.36;101077.00;4976090;28;20220;-59
2023/07/22 02:32:05;;;;;;;9.80;5.10;;;16.60;80.70;;;19.31;54.29;101079.06;4976392;28;20189;-61
2023/07/22 02:34:32;;;;;;;5.93;4.80;;;16.60;81.00;;;19.30;54.08;101085.47;4974964;28;20213;-60
2023/07/22 02:36:59;;;;;;;6.37;5.20;;;16.60;81.00;;;19.29;54.12;101084.66;4976381;28;20283;-61
2023/07/22 02:39:26;;;;;;;7.53;5.40;;;16.50;80.90;;;19.26;54.17;101084.25;4976178;28;20212;-60
2023/07/22 02:41:53;;;;;;;9.60;5.70;;;16.50;81.10;;;19.25;54.24;101096.81;4976113;28;20201;-59
2023/07/22 02:44:20;;;;;;;9.30;5.73;;;16.50;81.10;;;19.24;54.33;101097.03;4976174;28;20240;-57
2023/07/22 02:46:48;;;;;;;7.90;5.97;;;16.50;81.20;;;19.24;54.16;101107.69;4976189;28;20284;-60
2023/07/22 02:49:16;;;;;;;10.03;5.33;;;16.50;81.10;;;19.22;54.36;101101.78;4975190;28;20216;-60
2023/07/22 02:51:43;;;;;;;7.37;5.23;;;16.40;81.10;;;19.22;54.17;101099.91;4975667;28;20555;-61
2023/07/22 02:54:10;;;;;;;7.77;5.47;;;16.40;81.20;;;19.20;54.39;101093.19;5013138;28;20274;-60
2023/07/22 02:56:38;;;;;;;10.27;5.60;;;16.40;81.40;;;19.19;54.42;101105.69;5014953;28;20276;-58
2023/07/22 02:59:04;;;;;;;6.77;5.43;;;16.40;81.50;;;19.20;54.62;101117.19;4996317;28;20223;-60
2023/07/22 03:01:32;;;;;;;8.10;5.13;;;16.40;81.50;;;19.21;54.39;101108.13;4994085;28;20723;-59
2023/07/22 03:03:59;;;;;;;6.93;5.13;;;16.40;81.40;;;19.19;54.33;101110.22;4994812;28;20191;-60
2023/07/22 03:06:29;;;;;;;6.43;4.67;;;16.40;81.40;;;19.19;54.51;101111.03;4994721;28;20609;-59
2023/07/22 03:08:57;;;;;;;7.23;5.40;;;16.40;81.40;;;19.16;54.42;101116.00;4994474;28;20199;-61
2023/07/22 03:11:25;;;;;;;9.10;5.93;;;16.40;81.40;;;19.14;54.38;101112.72;4995091;28;20278;-59
2023/07/22 03:13:53;;;;;;;7.83;4.70;;;16.40;81.50;;;19.11;54.59;101115.84;4995029;28;20708;-61
2023/07/22 03:16:20;;;;;;;8.57;5.87;;;16.40;81.50;;;19.09;54.61;101109.94;4995056;28;20198;-57
2023/07/22 03:18:47;;;;;;;10.47;6.27;;;16.30;81.50;;;19.08;54.32;101113.63;4988800;28;20284;-58
2023/07/22 03:21:14;;;;;;;10.13;5.87;;;16.30;81.50;;;19.06;54.61;101115.69;4975672;28;20192;-61
2023/07/22 03:23:42;;;;;;;8.00;5.20;;;16.30;81.60;;;19.03;54.63;101116.13;4975531;28;20295;-60
2023/07/22 03:26:10;;;;;;;10.23;5.97;;;16.30;81.70;;;19.01;54.74;101124.38;4975387;28;20220;-60
2023/07/22 03:28:37;;;;;;;7.73;5.47;;;16.20;81.80;;;19.00;54.93;101127.25;4975427;28;20223;-61
2023/07/22 03:31:04;;;;;;;8.30;5.93;;;16.20;81.70;;;19.00;54.85;101127.25;4975872;28;20303;-60
2023/07/22 03:33:31;;;;;;;8.27;5.77;;;16.20;82.00;;;18.98;54.88;101134.66;4975269;28;20197;-60
2023/07/22 03:35:58;;;;;;;7.13;5.63;;;16.20;82.00;;;18.96;54.80;101129.53;4975315;28;20198;-59
2023/07/22 03:38:25;;;;;;;6.97;5.67;;;16.20;82.00;;;18.92;55.12;101134.50;4975234;28;20677;-60
2023/07/22 03:40:53;;;;;;;8.33;5.27;;;16.20;82.00;;;18.92;54.93;101126.47;4974843;28;20298;-59
2023/07/22 03:43:21;;;;;;;6.87;5.77;;;16.20;82.10;;;18.89;54.96;101137.63;4975084;28;20231;-60
2023/07/22 03:45:48;;;;;;;6.97;4.83;;;16.10;81.90;;;18.91;54.95;101134.72;4975044;28;20197;-62
2023/07/22 03:48:15;;;;;;;6.70;5.07;;;16.10;82.10;;;18.90;55.04;101123.22;4975269;28;20196;-60
2023/07/22 03:50:42;;;;;;;8.70;5.63;;;16.10;82.10;;;18.92;54.91;101131.03;4974387;28;20678;-58
2023/07/22 03:53:09;;;;;;;7.97;5.80;;;16.10;82.40;;;18.93;55.13;101133.47;4995708;28;20270;-59
2023/07/22 03:55:36;;;;;;;8.50;4.90;;;16.10;82.30;;;18.90;54.83;101139.22;5014026;28;20195;-59
2023/07/22 03:58:04;;;;;;;8.67;5.30;;;16.10;82.10;;;18.86;54.95;101139.88;5004375;28;20198;-60
2023/07/22 04:00:31;;;;;;;7.93;5.13;;;16.10;82.10;;;18.82;55.30;101136.84;4993481;28;20245;-59
2023/07/22 04:02:58;;;;;;;5.67;4.60;;;16.10;82.30;;;18.80;55.15;101138.91;4994367;28;20220;-61
2023/07/22 04:05:25;;;;;;;6.87;5.10;;;16.10;82.20;;;18.80;55.13;101138.13;4994024;28;20250;-61
2023/07/22 04:07:52;;;;;;;6.67;5.43;;;16.00;82.20;;;18.78;55.26;101137.50;4994338;28;20223;-62
2023/07/22 04:10:19;;;;;;;10.23;6.20;;;16.00;82.40;;;18.77;55.16;101134.03;4993918;28;20247;-60
2023/07/22 04:12:46;;;;;;;9.20;5.40;;;16.00;82.40;;;18.77;55.25;101144.69;4994419;28;20601;-61
2023/07/22 04:15:17;;;;;;;6.67;5.70;;;16.00;82.40;;;18.77;55.56;101141.22;4994316;28;20278;-60
2023/07/22 04:17:44;;;;;;;6.83;5.20;;;16.00;82.50;;;18.76;55.74;101137.72;4994318;28;20188;-60
2023/07/22 04:20:11;;;;;;;7.10;5.40;;;16.00;82.60;;;18.76;55.43;101147.56;4976835;28;20295;-61
2023/07/22 04:22:38;;;;;;;6.70;4.73;;;16.00;82.50;;;18.76;55.24;101140.38;4974746;28;20304;-65
2023/07/22 04:25:07;;;;;;;6.63;5.13;;;16.00;82.60;;;18.76;55.17;101148.38;4974231;28;20633;-61
2023/07/22 04:27:34;;;;;;;8.13;5.60;;;16.00;82.60;;;18.76;55.30;101152.91;4974892;28;20740;-60
2023/07/22 04:30:01;;;;;;;7.80;5.37;;;16.00;82.60;;;18.76;55.43;101143.06;4974241;28;20223;-60
2023/07/22 04:32:31;;;;;;;7.03;5.70;;;16.00;82.70;;;18.76;55.39;101153.72;4974712;28;20188;-58
2023/07/22 04:34:58;;;;;;;8.23;5.17;;;16.00;82.90;;;18.76;55.25;101156.38;4974561;28;20208;-58
2023/07/22 04:37:27;;;;;;;7.83;5.27;;;16.00;82.80;;;18.78;55.43;101161.50;4974494;28;20188;-60
2023/07/22 04:39:54;;;;;;;6.70;5.27;;;16.00;82.80;;;18.78;55.36;101156.97;4974291;28;20240;-60
2023/07/22 04:42:21;;;;;;;6.23;4.90;;;16.00;83.00;;;18.80;55.30;101160.25;4974425;28;20251;-61
2023/07/22 04:44:48;;;;;;;7.10;4.93;;;16.00;82.90;;;18.81;55.47;101169.88;4974395;28;20235;-60
2023/07/22 04:47:16;;;;;;;5.63;4.80;;;16.00;82.90;;;18.83;55.48;101167.00;4974532;28;20241;-60
2023/07/22 04:49:44;;;;;;;7.20;4.93;;;16.00;82.90;;;18.85;55.25;101168.41;4973941;28;20208;-59
2023/07/22 04:52:11;;;;;;;7.87;5.50;;;16.00;83.00;;;18.89;55.34;101169.63;4979451;28;20255;-61
2023/07/22 04:54:38;;;;;;;8.27;5.83;;;16.00;83.00;;;18.95;55.21;101178.59;5002501;28;20227;-60
2023/07/22 04:57:06;;;;;;;6.73;5.07;;;16.10;83.10;;;18.97;55.02;101181.06;4993487;28;20192;-59
2023/07/22 04:59:33;;;;;;;6.83;5.17;;;16.10;82.90;;;18.95;55.43;101181.25;4993638;28;20303;-60
2023/07/22 05:02:00;;;;;;;7.07;5.60;;;16.10;82.80;;;18.98;55.26;101182.69;4993765;28;20196;-61
2023/07/22 05:04:27;;;;;;;6.13;5.00;;;16.10;82.90;;;19.01;55.05;101179.59;4994008;28;20192;-60
2023/07/22 05:06:55;;;;;;;7.10;5.53;;;16.20;83.10;;;19.06;55.31;101185.09;4993326;28;20191;-57
2023/07/22 05:09:22;;;;;;;10.10;5.57;;;16.20;83.10;;;19.10;55.01;101175.59;4989045;28;20370;-58
2023/07/22 05:11:49;;;;;;;6.60;4.87;;;16.20;82.90;;;19.15;55.15;101183.75;4974436;28;20677;-60
2023/07/22 05:14:16;;;;;;;6.60;5.17;;;16.30;83.00;;;19.18;54.89;101186.00;4977853;28;20193;-61
2023/07/22 05:16:43;;;;;;;7.40;4.97;;;16.30;82.70;;;19.22;54.78;101180.00;4977914;28;20193;-61
2023/07/22 05:19:10;;;;;;;6.63;5.47;;;16.30;82.60;;;19.27;54.88;101171.31;4986611;28;20226;-60
2023/07/22 05:21:37;;;;;;;7.40;5.67;;;16.40;82.60;;;19.31;54.71;101173.34;4997205;28;20278;-60
2023/07/22 05:24:05;;;;;;;7.00;4.80;;;16.40;82.40;;;19.38;54.83;101183.97;4997330;28;20270;-58
2023/07/22 05:26:32;;;;;;;8.63;5.07;;;16.40;82.40;;;19.45;54.61;101176.69;4997121;28;20242;-61
2023/07/22 05:28:59;;;;;;;6.90;4.80;;;16.50;82.50;;;19.56;54.22;101176.00;4997165;28;20597;-60
2023/07/22 05:31:27;;;;;;;5.27;4.63;;;16.60;82.50;;;19.65;54.48;101179.16;4997060;28;20588;-60
2023/07/22 05:33:54;;;;;;;7.17;4.87;;;16.60;82.20;;;19.72;54.12;101182.56;4997447;28;20214;-60
2023/07/22 05:36:21;;;;;;;7.20;4.80;;;16.70;82.10;;;19.78;53.80;101185.16;4996819;28;20278;-60
2023/07/22 05:38:48;;;;;;;7.27;5.40;;;16.80;82.00;;;19.85;53.88;101185.91;4996572;28;20274;-59
2023/07/22 05:41:16;;;;;;;7.00;4.87;;;16.80;81.60;;;19.90;53.80;101187.91;4996985;28;20700;-61
2023/07/22 05:43:43;;;;;;;6.57;4.20;;;16.90;81.40;;;19.95;53.67;101190.72;4996843;28;20211;-59
2023/07/22 05:46:10;;;;;;;4.77;4.10;;;16.90;81.40;;;20.04;53.31;101187.50;4997239;28;20287;-60
2023/07/22 05:48:38;;;;;;;8.87;5.30;;;17.00;81.30;;;20.13;53.45;101188.81;4996366;28;20192;-58
2023/07/22 05:51:05;;;;;;;8.63;5.40;;;17.10;81.10;;;20.18;52.80;101193.53;4996254;28;20254;-60
2023/07/22 05:53:33;;;;;;;6.57;5.33;;;17.20;80.70;;;20.23;52.93;101189.13;5009984;28;20614;-61
2023/07/22 05:56:00;;;;;;;6.57;4.47;;;17.20;80.60;;;20.33;52.92;101183.25;5016054;28;20227;-61
2023/07/22 05:58:28;;;;;;;8.37;4.47;;;17.30;80.60;;;20.45;52.40;101185.94;5002929;28;20669;-61
2023/07/22 06:00:56;;;;;;;6.87;5.87;;;17.40;80.40;;;20.52;51.99;101186.66;5011796;28;20295;-59
2023/07/22 06:03:23;;;;;;;7.83;5.80;;;17.40;80.00;;;20.48;52.06;101185.50;4996661;28;20303;-58
2023/07/22 06:05:50;;;;;;;6.93;5.50;;;17.50;79.60;;;20.38;52.72;101185.22;4996441;28;20192;-61
2023/07/22 06:08:17;;;;;;;5.63;4.50;;;17.50;79.20;;;20.33;52.69;101193.13;4996037;28;20283;-60
2023/07/22 06:10:44;;;;;;;7.13;5.03;;;17.60;79.30;;;20.27;52.88;101202.88;4992957;28;20745;-60
2023/07/22 06:13:11;;;;;;;7.33;5.23;;;17.60;79.30;;;20.33;52.78;101209.16;4976853;28;20193;-59
2023/07/22 06:15:39;;;;;;;6.23;4.37;;;17.60;79.30;;;20.38;52.43;101199.44;4976663;28;20207;-58
2023/07/22 06:18:08;;;;;;;7.03;5.63;;;17.60;79.30;;;20.45;52.09;101202.00;4977313;28;20275;-60
2023/07/22 06:20:36;;;;;;;7.67;5.53;;;17.60;79.30;;;20.42;52.21;101202.47;4995925;28;20294;-59
2023/07/22 06:23:03;;;;;;;8.53;5.00;;;17.60;79.00;;;20.28;52.41;101201.03;4994679;28;20224;-62
2023/07/22 06:25:30;;;;;;;8.97;5.23;;;17.60;78.70;;;20.36;52.34;101203.38;4995423;28;20207;-60
2023/07/22 06:27:57;;;;;;;6.53;4.60;;;17.70;78.80;;;20.46;52.53;101209.00;4994701;28;20195;-62
2023/07/22 06:30:24;;;;;;;6.30;5.07;;;17.70;78.80;;;20.46;51.90;101198.28;4995373;28;20235;-57
2023/07/22 06:32:53;;;;;;;6.00;4.57;;;17.70;78.50;;;20.50;51.83;101204.81;4995733;28;20279;-59
2023/07/22 06:35:20;;;;;;;7.17;4.80;;;17.80;78.50;;;20.65;52.10;101207.88;4995592;28;20188;-62
2023/07/22 06:37:47;;;;;;;7.33;4.30;;;17.80;78.40;;;20.80;51.50;101200.25;4996021;28;20667;-61
2023/07/22 06:40:14;;;;;;;6.67;4.37;;;17.90;78.30;;;20.86;51.47;101204.66;4995575;28;20214;-59
2023/07/22 06:42:41;;;;;;;4.97;4.30;;;18.00;78.00;;;20.87;50.64;101206.31;4995645;28;20279;-61
2023/07/22 06:45:08;;;;;;;9.03;6.87;;;18.00;77.40;;;20.86;51.05;101210.03;4994251;28;20223;-61
2023/07/22 06:47:36;;;;;;;7.77;4.50;;;18.10;77.30;;;20.95;51.18;101203.28;4994296;28;20335;-60
2023/07/22 06:50:06;;;;;;;4.80;4.07;;;18.20;77.40;;;21.08;50.87;101203.09;4994925;28;20211;-59
2023/07/22 06:52:33;;;;;;;6.53;4.03;;;18.20;77.40;;;21.24;50.36;101202.41;5000765;28;20238;-61
2023/07/22 06:55:00;;;;;;;9.27;6.10;;;18.30;77.50;;;21.43;50.58;101211.13;5015074;28;20672;-60
2023/07/22 06:57:29;;;;;;;6.77;3.70;;;18.30;77.30;;;21.40;49.80;101212.41;5010330;28;20196;-59
2023/07/22 06:59:57;;;;;;;4.37;3.73;;;18.50;76.40;;;21.50;49.81;101214.50;4995619;28;20242;-59
2023/07/22 07:02:24;;;;;;;6.20;3.97;;;18.50;76.10;;;21.55;49.29;101210.06;4995049;28;20286;-61
2023/07/22 07:04:51;;;;;;;7.37;4.30;;;18.60;75.80;;;21.54;49.32;101213.78;4994884;28;20216;-59
2023/07/22 07:07:19;;;;;;;4.30;3.13;;;18.70;75.60;;;21.63;49.65;101210.75;4995062;28;20192;-59
2023/07/22 07:09:46;;;;;;;6.07;3.97;;;18.70;75.70;;;21.68;48.78;101214.34;4994765;28;20262;-60
2023/07/22 07:12:13;;;;;;;6.33;3.87;;;18.70;74.90;;;21.74;48.72;101212.59;4994962;28;20621;-57
2023/07/22 07:14:41;;;;;;;6.67;3.77;;;18.80;74.90;;;21.65;48.50;101208.66;4995054;28;20689;-61
2023/07/22 07:17:08;;;;;;;5.93;3.83;;;18.80;74.10;;;21.65;48.19;101205.97;4994633;28;20184;-57
2023/07/22 07:19:35;;;;;;;6.03;3.20;;;18.90;73.90;;;21.70;48.43;101206.91;4994319;28;20314;-60
2023/07/22 07:22:02;;;;;;;4.00;2.93;;;18.90;74.00;;;21.85;48.40;101203.75;4994963;28;20286;-59
2023/07/22 07:24:30;;;;;;;5.87;3.27;;;19.00;74.10;;;21.98;48.20;101198.13;4994304;28;20212;-58
2023/07/22 07:26:57;;;;;;;4.33;2.73;;;19.10;74.10;;;22.14;48.20;101205.41;4995217;28;20200;-60
2023/07/22 07:29:24;;;;;;;5.37;4.00;;;19.10;74.20;;;22.26;47.87;101211.53;4994324;28;20270;-61
2023/07/22 07:32:11;;;;;;;6.73;4.20;;;19.20;74.00;;;22.21;47.75;101208.75;4994618;28;20191;-60
2023/07/22 07:34:38;;;;;;;6.70;3.70;;;19.30;73.10;;;22.02;47.35;101210.00;4994326;28;20199;-59
2023/07/22 07:37:06;;;;;;;4.67;3.13;;;19.30;72.50;;;22.14;47.57;101208.09;4995089;28;20198;-59
2023/07/22 07:39:34;;;;;;;4.47;2.90;;;19.30;72.50;;;22.28;47.44;101209.44;4994777;28;20258;-58
2023/07/22 07:42:01;;;;;;;3.73;2.67;;;19.40;72.60;;;22.46;47.50;101211.13;4994563;28;20290;-61
2023/07/22 07:44:29;;;;;;;5.47;2.60;;;19.50;72.50;;;22.60;46.90;101210.56;4992962;28;20239;-61
2023/07/22 07:46:56;;;;;;;5.27;3.63;;;19.50;72.40;;;22.76;46.46;101215.16;4993241;28;20295;-60
2023/07/22 07:49:23;;;;;;;4.13;3.20;;;19.60;72.00;;;22.79;45.96;101212.00;4993517;28;20698;-61
2023/07/22 07:51:50;;;;;;;3.37;2.70;;;19.70;71.20;;;22.68;46.16;101210.19;4993373;28;20212;-60
2023/07/22 07:54:17;;;;;;;4.70;3.23;;;19.70;71.00;;;22.68;45.99;101210.19;4994168;28;20284;-59
2023/07/22 07:56:45;;;;;;;3.40;2.57;;;19.80;71.00;;;22.70;45.57;101218.03;4994696;28;20187;-60
2023/07/22 07:59:12;;;;;;;2.97;2.57;;;19.80;70.50;;;22.63;45.86;101222.72;4994109;28;20216;-60
2023/07/22 08:01:41;;;;;;;5.10;3.23;;;19.80;70.40;;;22.64;46.23;101225.16;4994371;28;20275;-60
2023/07/22 08:04:09;;;;;;;5.63;3.73;;;19.80;71.00;;;22.58;47.14;101220.72;4993284;28;20206;-59
2023/07/22 08:06:37;;;;;;;6.03;3.40;;;19.80;71.70;;;22.63;47.16;101228.88;4994450;28;20246;-58
2023/07/22 08:09:05;;;;;;;7.27;4.63;;;19.80;72.30;;;22.67;47.12;101227.38;4993502;28;20215;-61
2023/07/22 08:11:32;;;;;;;11.90;10.10;;;19.80;72.40;;;22.92;47.27;101227.78;4993676;28;20198;-60
2023/07/22 08:14:01;;;;;;;5.83;4.87;;;19.90;72.80;;;23.64;46.23;101230.50;4993875;28;20196;-59
2023/07/22 08:16:28;;;;;;;6.77;3.43;;;20.00;73.20;;;24.23;44.00;101223.47;4993739;28;20239;-60
2023/07/22 08:18:56;;;;;;;4.33;3.40;;;20.30;70.40;;;24.63;43.09;101226.56;4993203;28;20613;-59
2023/07/22 08:21:23;;;;;;;5.13;3.20;;;20.60;69.70;;;24.95;42.45;101226.59;4993695;28;20637;-60
2023/07/22 08:23:50;;;;;;;6.03;3.37;;;21.00;69.40;;;25.27;42.03;101223.88;4993418;28;20235;-60
2023/07/22 08:26:20;;;;;;;5.47;4.03;;;21.20;68.40;;;25.56;41.59;101217.06;4994148;28;20192;-60
2023/07/22 08:28:47;;;;;;;4.63;3.37;;;21.50;67.70;;;25.94;41.33;101213.19;4993354;28;20271;-57
2023/07/22 08:31:16;;;;;;;4.67;3.03;;;21.80;67.60;;;26.39;39.16;101220.63;4993328;28;20271;-61
2023/07/22 08:33:43;;;;;;;5.47;3.40;;;22.00;65.30;;;26.48;37.94;101219.84;4993513;28;20196;-60
2023/07/22 08:36:10;;;;;;;7.83;3.43;;;22.20;63.50;;;26.31;38.85;101219.28;4993466;28;20251;-60
2023/07/22 08:38:37;;;;;;;5.23;3.67;;;22.50;62.40;;;26.35;38.56;101220.38;4993487;28;20195;-60
2023/07/22 08:41:05;;;;;;;3.93;3.20;;;22.60;62.10;;;26.73;38.24;101217.19;4993292;28;20231;-61
2023/07/22 08:43:38;;;;;;;3.80;2.93;;;22.80;62.10;;;27.20;37.70;101207.97;4993598;28;20683;-61
2023/07/22 08:46:07;;;;;;;6.10;3.30;;;23.10;62.30;;;27.19;36.78;101217.19;4993219;28;20180;-60
2023/07/22 08:48:41;;;;;;;4.33;3.93;;;23.30;59.70;;;26.82;37.15;101221.00;4995245;28;20282;-62
2023/07/22 08:51:16;;;;;;;6.80;4.47;;;23.40;59.50;;;26.52;37.55;101215.53;4995305;28;20295;-59
2023/07/22 08:53:44;;;;;;;4.20;3.80;;;23.30;59.20;;;26.09;38.12;101215.94;5012344;28;20582;-63
2023/07/22 08:56:20;;;;;;;7.83;4.83;;;23.10;58.80;;;25.67;38.21;101212.56;5016488;28;20179;-59
2023/07/22 08:58:50;;;;;;;5.13;4.63;;;22.90;58.80;;;25.40;38.89;101216.16;5000948;28;20291;-60
2023/07/22 09:01:17;;;;;;;6.13;4.90;;;22.70;59.30;;;25.16;39.38;101217.59;4997202;28;20191;-62
2023/07/22 09:03:51;;;;;;;5.80;4.70;;;22.50;59.90;;;25.07;39.64;101219.16;4997174;28;20227;-63
2023/07/22 09:06:19;;;;;;;5.17;4.50;;;22.30;60.40;;;25.25;39.60;101218.75;4997170;28;20703;-62
2023/07/22 09:08:47;;;;;;;5.33;4.80;;;22.30;61.00;;;25.54;39.62;101220.03;4995809;28;20511;-60
2023/07/22 09:11:15;;;;;;;6.50;4.90;;;22.30;61.40;;;25.61;38.82;101218.97;4997327;28;20664;-58
2023/07/22 09:13:46;;;;;;;6.60;5.73;;;22.30;60.60;;;25.33;38.96;101228.22;4997271;28;20270;-60
2023/07/22 09:16:15;;;;;;;5.30;4.80;;;22.30;60.30;;;25.31;39.31;101220.41;4995950;28;20282;-59
2023/07/22 09:18:42;;;;;;;5.47;4.93;;;22.30;60.60;;;25.45;39.82;101221.59;4996682;28;20592;-60
2023/07/22 09:21:11;;;;;;;6.10;5.20;;;22.40;60.90;;;25.57;39.74;101228.66;4997264;28;20215;-60
2023/07/22 09:23:38;;;;;;;6.57;5.87;;;22.40;61.10;;;25.95;39.14;101226.44;4997011;28;20239;-60
2023/07/22 09:26:11;;;;;;;6.20;5.13;;;22.40;61.30;;;25.97;38.88;101220.75;4996711;28;20239;-60
2023/07/22 09:28:57;;;;;;;8.20;5.50;;;22.50;60.50;;;26.12;38.80;101216.28;4996374;28;20195;-60
2023/07/22 09:31:27;;;;;;;7.17;6.03;;;22.60;61.00;;;26.72;37.97;101207.44;4996734;28;20278;-60
2023/07/22 09:33:55;;;;;;;7.87;6.43;;;22.80;60.70;;;27.40;36.42;101205.28;4996986;28;20184;-60
2023/07/22 09:36:23;;;;;;;5.97;5.33;;;23.00;60.30;;;27.75;36.15;101207.84;4996630;28;20200;-60
2023/07/22 09:39:03;;;;;;;6.53;5.10;;;23.40;59.40;;;27.93;34.70;101214.56;4996001;28;20283;-61
2023/07/22 09:41:31;;;;;;;6.93;6.17;;;23.60;57.90;;;28.11;34.97;101212.06;4996660;28;20230;-61
2023/07/22 09:44:02;;;;;;;7.03;5.40;;;23.80;57.60;;;28.38;34.18;101208.09;4996414;28;20299;-62
2023/07/22 09:46:35;;;;;;;8.17;6.10;;;24.00;56.50;;;28.61;33.85;101204.72;4996697;28;20260;-60
2023/07/22 09:49:05;;;;;;;7.10;5.97;;;24.20;56.10;;;28.65;33.72;101200.34;4995954;28;20684;-60
2023/07/22 09:51:36;;;;;;;6.83;5.93;;;24.40;55.80;;;28.44;33.64;101204.25;4995555;28;20270;-61
2023/07/22 09:54:26;;;;;;;6.83;6.23;;;24.50;55.40;;;28.15;34.39;101202.28;4977143;28;20204;-61
2023/07/22 09:56:53;;;;;;;8.47;6.53;;;24.50;55.40;;;27.72;35.18;101191.38;4976479;28;20247;-60
2023/07/22 09:59:23;;;;;;;6.67;6.07;;;24.40;55.60;;;27.18;35.63;101202.03;4994210;28;20310;-61
2023/07/22 10:01:51;;;;;;;7.43;5.97;;;24.20;55.50;;;27.12;35.98;101203.97;4996436;28;20196;-62
2023/07/22 10:04:25;;;;;;;6.53;5.70;;;24.10;55.80;;;27.25;35.58;101197.16;4996080;28;20552;-60
2023/07/22 10:06:54;;;;;;;6.10;5.50;;;24.00;55.80;;;27.21;35.26;101191.50;4996392;28;20228;-60
2023/07/22 10:09:28;;;;;;;7.37;6.13;;;23.90;56.20;;;27.07;35.66;101195.84;4995965;28;20212;-62
2023/07/22 10:11:55;;;;;;;6.50;5.77;;;23.80;55.70;;;27.07;36.09;101185.03;4996046;28;20219;-58
2023/07/22 10:14:23;;;;;;;7.27;5.73;;;23.80;56.20;;;27.48;35.84;101192.00;4996034;28;20596;-58
2023/07/22 10:16:52;;;;;;;6.83;6.00;;;23.80;56.60;;;27.70;34.63;101194.34;4995826;28;20200;-60